Time;durP1;ratioP1;P1;durP2;ratioP2;P2;SDS_P1;SDS_P2;PMS_P1;PMS_P2;Temp;Humidity;BMP_temperature;BMP_pressure;BME280_temperature;BME280_humidity;BME280_pressure;Samples;Min_cycle;Max_cycle;Signal;HPM_P1;HPM_P2
2023/07/24 00:00:28;;;;;;;22.33;8.70;;;21.30;93.00;;;;;;5028458;28;20724;-63
2023/07/24 00:02:53;;;;;;;12.00;8.20;;;21.20;92.80;;;;;;5028005;28;20447;-64
2023/07/24 00:05:19;;;;;;;14.47;8.50;;;21.20;92.70;;;;;;5027051;28;20693;-64
2023/07/24 00:07:45;;;;;;;16.40;8.83;;;21.10;94.20;;;;;;5028410;28;20219;-64
2023/07/24 00:10:10;;;;;;;12.40;8.60;;;21.00;94.50;;;;;;5028425;28;20596;-63
2023/07/24 00:12:36;;;;;;;14.93;9.00;;;21.00;96.50;;;;;;5028742;28;20186;-63
2023/07/24 00:15:01;;;;;;;12.10;8.77;;;21.00;97.90;;;;;;5028810;28;20192;-63
2023/07/24 00:17:27;;;;;;;12.73;8.20;;;20.90;96.00;;;;;;5029024;28;20189;-63
2023/07/24 00:19:53;;;;;;;14.37;8.47;;;20.80;93.70;;;;;;5029035;28;20209;-64
2023/07/24 00:22:18;;;;;;;14.53;8.10;;;20.80;94.40;;;;;;5029198;28;20200;-63
2023/07/24 00:24:44;;;;;;;13.30;8.70;;;20.80;94.20;;;;;;5029172;28;20284;-62
2023/07/24 00:27:09;;;;;;;14.90;8.77;;;20.60;95.00;;;;;;5029087;28;20203;-63
2023/07/24 00:29:35;;;;;;;13.87;8.57;;;20.50;95.90;;;;;;5029418;28;20219;-63
2023/07/24 00:32:00;;;;;;;12.43;8.63;;;20.40;95.60;;;;;;5029032;28;20188;-63
2023/07/24 00:34:26;;;;;;;12.70;8.40;;;20.40;96.10;;;;;;5028434;28;20207;-63
2023/07/24 00:36:52;;;;;;;13.47;8.43;;;20.30;97.20;;;;;;5028346;28;20220;-63
2023/07/24 00:39:17;;;;;;;13.13;8.70;;;20.30;98.80;;;;;;5028176;28;20279;-64
2023/07/24 00:41:43;;;;;;;15.97;8.80;;;20.20;96.90;;;;;;5028349;28;20190;-64
2023/07/24 00:44:09;;;;;;;13.63;8.50;;;20.00;97.40;;;;;;5028132;28;20674;-63
2023/07/24 00:46:35;;;;;;;12.33;8.60;;;20.00;97.00;;;;;;5028079;28;20185;-63
2023/07/24 00:49:02;;;;;;;12.60;8.30;;;19.80;98.00;;;;;;5027973;28;20223;-63
2023/07/24 00:51:27;;;;;;;15.27;9.67;;;19.80;98.50;;;;;;5028187;28;20431;-63
2023/07/24 00:53:59;;;;;;;11.70;7.67;;;19.80;99.30;;;;;;5028207;28;20481;-63
2023/07/24 00:56:24;;;;;;;13.10;8.70;;;19.80;99.90;;;;;;5028015;28;20184;-64
2023/07/24 00:58:51;;;;;;;21.37;9.17;;;19.70;99.90;;;;;;5028046;28;20483;-64
2023/07/24 01:01:17;;;;;;;14.20;8.60;;;19.60;99.90;;;;;;5027934;28;20695;-64
2023/07/24 01:03:43;;;;;;;12.60;8.60;;;19.50;99.90;;;;;;5028062;28;20468;-64
2023/07/24 01:06:09;;;;;;;14.23;8.77;;;19.40;99.90;;;;;;5028247;28;20423;-64
2023/07/24 01:08:35;;;;;;;20.40;8.23;;;19.40;99.90;;;;;;5027936;28;20506;-64
2023/07/24 01:11:11;;;;;;;14.50;8.70;;;19.40;99.90;;;;;;5027955;28;20447;-64
2023/07/24 01:13:42;;;;;;;13.13;8.80;;;19.30;99.90;;;;;;5030765;28;20414;-64
2023/07/24 01:16:17;;;;;;;13.20;8.13;;;19.10;99.90;;;;;;5031833;28;20467;-64
2023/07/24 01:18:44;;;;;;;12.53;8.20;;;19.10;99.90;;;;;;5032051;28;20415;-64
2023/07/24 01:21:13;;;;;;;14.73;7.77;;;19.10;99.90;;;;;;5032069;28;20522;-64
2023/07/24 01:24:04;;;;;;;12.87;8.50;;;19.00;99.90;;;;;;5031981;28;20429;-64
2023/07/24 01:26:30;;;;;;;13.43;7.80;;;19.00;99.90;;;;;;5032228;28;20447;-64
2023/07/24 01:28:56;;;;;;;11.97;8.67;;;18.90;99.90;;;;;;5032057;28;20521;-64
2023/07/24 01:31:21;;;;;;;16.17;8.87;;;18.80;99.90;;;;;;5032006;28;20980;-64
2023/07/24 01:33:47;;;;;;;13.87;8.77;;;18.80;99.90;;;;;;5032327;28;20180;-64
2023/07/24 01:36:14;;;;;;;14.63;8.10;;;18.60;99.90;;;;;;5031952;28;20199;-64
2023/07/24 01:38:41;;;;;;;13.30;8.30;;;18.40;99.90;;;;;;5031997;28;20180;-64
2023/07/24 01:41:07;;;;;;;13.33;8.07;;;18.50;99.90;;;;;;5031692;28;20442;-64
2023/07/24 01:43:33;;;;;;;15.03;8.57;;;18.50;99.90;;;;;;5031669;28;20430;-64
2023/07/24 01:45:58;;;;;;;13.00;8.73;;;18.50;99.90;;;;;;5031436;28;20419;-64
2023/07/24 01:48:24;;;;;;;20.03;8.90;;;18.60;99.90;;;;;;5031729;28;20181;-64
2023/07/24 01:50:50;;;;;;;13.73;8.93;;;18.60;99.90;;;;;;5030923;28;20235;-63
2023/07/24 01:53:16;;;;;;;15.20;8.80;;;18.60;99.90;;;;;;5030874;28;20189;-63
2023/07/24 01:55:41;;;;;;;13.40;8.67;;;18.40;99.90;;;;;;5030827;28;20188;-63
2023/07/24 01:58:07;;;;;;;12.53;8.63;;;18.30;99.90;;;;;;5030848;28;20180;-64
2023/07/24 02:00:33;;;;;;;14.70;8.83;;;18.10;99.90;;;;;;5030520;28;20204;-63
2023/07/24 02:02:58;;;;;;;12.17;7.50;;;18.30;99.90;;;;;;5030597;28;20189;-63
2023/07/24 02:05:24;;;;;;;12.20;7.70;;;18.30;99.90;;;;;;5030715;28;20276;-64
2023/07/24 02:07:49;;;;;;;14.90;8.40;;;18.50;99.90;;;;;;5029317;28;20326;-63
2023/07/24 02:10:15;;;;;;;11.80;7.63;;;18.70;99.90;;;;;;5030398;28;20215;-63
2023/07/24 02:12:41;;;;;;;12.50;7.40;;;18.80;99.90;;;;;;5030470;28;20252;-63
2023/07/24 02:15:07;;;;;;;12.30;8.20;;;18.80;99.90;;;;;;5030411;28;20705;-63
2023/07/24 02:17:32;;;;;;;13.20;8.70;;;18.80;99.90;;;;;;5030402;28;20531;-64
2023/07/24 02:19:58;;;;;;;13.87;7.60;;;18.70;99.90;;;;;;5030305;28;20439;-63
2023/07/24 02:22:24;;;;;;;16.53;8.90;;;18.60;99.90;;;;;;5028678;28;20667;-63
2023/07/24 02:24:50;;;;;;;12.23;8.40;;;18.50;99.90;;;;;;5029306;28;20383;-63
2023/07/24 02:27:31;;;;;;;12.60;7.50;;;18.60;99.90;;;;;;5030147;28;21203;-63
2023/07/24 02:29:57;;;;;;;13.60;8.53;;;18.80;99.90;;;;;;5029836;28;20215;-63
2023/07/24 02:32:23;;;;;;;15.73;7.20;;;18.90;99.90;;;;;;5029996;28;20502;-63
2023/07/24 02:34:50;;;;;;;13.50;8.00;;;18.90;99.90;;;;;;5029927;28;20861;-63
2023/07/24 02:37:15;;;;;;;13.23;8.10;;;18.90;99.90;;;;;;5030013;28;20182;-63
2023/07/24 02:39:41;;;;;;;16.77;8.57;;;19.10;99.90;;;;;;5029797;28;20439;-63
2023/07/24 02:42:06;;;;;;;16.20;9.30;;;19.20;99.90;;;;;;5029933;28;20202;-63
2023/07/24 02:44:34;;;;;;;13.20;7.77;;;19.30;99.90;;;;;;5029806;28;20189;-63
2023/07/24 02:47:00;;;;;;;15.53;8.43;;;19.30;99.90;;;;;;5029837;28;20181;-63
2023/07/24 02:49:25;;;;;;;11.77;7.23;;;19.40;99.90;;;;;;5030221;28;20481;-63
2023/07/24 02:51:51;;;;;;;14.30;8.40;;;19.50;99.90;;;;;;5030493;28;20195;-63
2023/07/24 02:54:17;;;;;;;16.80;9.50;;;19.50;99.90;;;;;;5030237;28;20180;-63
2023/07/24 02:56:42;;;;;;;16.13;9.23;;;19.50;99.90;;;;;;5030385;28;20190;-63
2023/07/24 02:59:08;;;;;;;16.90;8.23;;;19.60;99.90;;;;;;5030267;28;20670;-63
2023/07/24 03:01:33;;;;;;;14.90;9.13;;;19.70;99.90;;;;;;5030150;28;20560;-63
2023/07/24 03:03:59;;;;;;;14.67;8.90;;;19.70;99.90;;;;;;5030002;28;20184;-64
2023/07/24 03:06:25;;;;;;;15.67;8.90;;;19.80;99.90;;;;;;5029806;28;20990;-63
2023/07/24 03:08:51;;;;;;;13.27;8.30;;;19.90;99.90;;;;;;5029909;28;20242;-63
2023/07/24 03:11:16;;;;;;;12.53;8.30;;;20.00;99.90;;;;;;5029574;28;20446;-63
2023/07/24 03:13:42;;;;;;;13.10;8.60;;;20.00;99.90;;;;;;5029820;28;20180;-63
2023/07/24 03:16:08;;;;;;;15.83;9.50;;;20.10;99.90;;;;;;5029494;28;20176;-63
2023/07/24 03:18:34;;;;;;;13.70;9.20;;;20.10;99.90;;;;;;5029383;28;20411;-63
2023/07/24 03:20:59;;;;;;;14.87;8.93;;;20.10;99.90;;;;;;5029413;28;20745;-63
2023/07/24 03:23:25;;;;;;;12.23;8.40;;;20.00;99.90;;;;;;5029225;28;20188;-63
2023/07/24 03:25:51;;;;;;;14.70;8.87;;;20.00;99.90;;;;;;5029067;28;20273;-64
2023/07/24 03:28:17;;;;;;;15.93;10.23;;;20.00;99.90;;;;;;5029106;28;20460;-63
2023/07/24 03:30:42;;;;;;;14.70;9.20;;;19.90;99.90;;;;;;5028822;28;20213;-63
2023/07/24 03:33:08;;;;;;;14.80;9.30;;;19.80;99.90;;;;;;5028819;28;20185;-63
2023/07/24 03:35:33;;;;;;;18.70;9.70;;;19.90;99.90;;;;;;5029000;28;20187;-63
2023/07/24 03:37:59;;;;;;;12.40;9.20;;;20.00;99.90;;;;;;5028832;28;20185;-63
2023/07/24 03:40:25;;;;;;;12.83;8.40;;;20.00;99.90;;;;;;5028493;28;20231;-63
2023/07/24 03:42:51;;;;;;;16.00;9.80;;;20.00;99.90;;;;;;5028743;28;20964;-63
2023/07/24 03:45:16;;;;;;;14.97;9.00;;;20.10;99.90;;;;;;5028689;28;20181;-64
2023/07/24 03:47:42;;;;;;;13.87;8.63;;;20.20;99.90;;;;;;5028579;28;20611;-63
2023/07/24 03:50:08;;;;;;;15.73;8.77;;;20.20;99.90;;;;;;5028252;28;20224;-63
2023/07/24 03:52:33;;;;;;;15.47;9.33;;;20.20;99.90;;;;;;5028537;28;20192;-63
2023/07/24 03:54:59;;;;;;;14.00;9.50;;;20.20;99.90;;;;;;5028491;28;20430;-63
2023/07/24 03:57:24;;;;;;;14.50;8.70;;;20.10;99.90;;;;;;5028604;28;20312;-63
2023/07/24 03:59:50;;;;;;;17.03;9.90;;;20.10;99.90;;;;;;5028370;28;20217;-63
2023/07/24 04:02:16;;;;;;;17.20;9.73;;;20.20;99.90;;;;;;5028258;28;20184;-63
2023/07/24 04:04:41;;;;;;;13.87;8.80;;;20.20;99.90;;;;;;5028494;28;20184;-63
2023/07/24 04:07:07;;;;;;;14.00;8.50;;;20.30;99.90;;;;;;5028400;28;20192;-63
2023/07/24 04:09:32;;;;;;;12.37;8.70;;;20.30;99.90;;;;;;5028126;28;20231;-63
2023/07/24 04:11:58;;;;;;;12.00;8.17;;;20.40;99.90;;;;;;5028151;28;20683;-63
2023/07/24 04:14:23;;;;;;;15.13;8.90;;;20.50;99.90;;;;;;5028347;28;20216;-63
2023/07/24 04:16:49;;;;;;;12.77;8.70;;;20.50;99.90;;;;;;5028401;28;20271;-63
2023/07/24 04:19:15;;;;;;;14.63;8.93;;;20.60;99.90;;;;;;5028102;28;20188;-63
2023/07/24 04:21:40;;;;;;;13.00;8.90;;;20.60;99.90;;;;;;5028405;28;20193;-63
2023/07/24 04:24:06;;;;;;;12.83;8.67;;;20.60;99.90;;;;;;5028159;28;20587;-64
2023/07/24 04:26:32;;;;;;;14.27;8.70;;;20.60;99.90;;;;;;5028123;28;20539;-64
2023/07/24 04:28:57;;;;;;;12.23;8.20;;;20.70;99.90;;;;;;5028104;28;20208;-64
2023/07/24 04:31:23;;;;;;;12.50;8.37;;;20.70;99.90;;;;;;5028141;28;20673;-64
2023/07/24 04:33:48;;;;;;;14.23;9.00;;;20.80;99.90;;;;;;5028200;28;20185;-64
2023/07/24 04:36:14;;;;;;;14.43;9.00;;;20.90;99.90;;;;;;5027776;28;20204;-63
2023/07/24 04:38:40;;;;;;;10.33;7.50;;;20.90;99.90;;;;;;5027869;28;20755;-63
2023/07/24 04:41:06;;;;;;;11.80;8.13;;;21.10;99.90;;;;;;5028266;28;20526;-64
2023/07/24 04:43:31;;;;;;;14.33;8.33;;;21.20;99.90;;;;;;5028335;28;20192;-63
2023/07/24 04:45:57;;;;;;;14.77;8.33;;;21.20;99.90;;;;;;5028037;28;20250;-63
2023/07/24 04:48:23;;;;;;;12.00;8.03;;;21.20;99.90;;;;;;5030285;28;20193;-63
2023/07/24 04:50:55;;;;;;;15.97;8.13;;;21.30;99.90;;;;;;5031205;28;20235;-64
2023/07/24 04:53:21;;;;;;;14.23;8.30;;;21.30;99.90;;;;;;5030213;28;20180;-63
2023/07/24 04:55:47;;;;;;;16.10;8.43;;;21.40;99.90;;;;;;5030370;28;20433;-63
2023/07/24 04:58:12;;;;;;;14.17;9.37;;;21.30;99.90;;;;;;5030545;28;20421;-64
2023/07/24 05:00:38;;;;;;;13.03;8.73;;;21.40;99.90;;;;;;5030408;28;20212;-63
2023/07/24 05:03:05;;;;;;;13.73;8.43;;;21.40;99.90;;;;;;5030530;28;20188;-63
2023/07/24 05:05:31;;;;;;;12.07;8.23;;;21.40;99.90;;;;;;5030313;28;20272;-63
2023/07/24 05:07:57;;;;;;;15.83;9.10;;;21.40;99.90;;;;;;5030077;28;20431;-63
2023/07/24 05:10:22;;;;;;;13.50;8.87;;;21.40;99.90;;;;;;5029973;28;20977;-63
2023/07/24 05:12:48;;;;;;;11.53;8.13;;;21.50;99.90;;;;;;5030137;28;20184;-63
2023/07/24 05:15:16;;;;;;;14.27;8.67;;;21.40;99.90;;;;;;5030788;28;20197;-64
2023/07/24 05:17:45;;;;;;;13.93;8.07;;;21.30;99.90;;;;;;5030697;28;20620;-63
2023/07/24 05:20:11;;;;;;;11.90;8.40;;;21.30;99.90;;;;;;5030023;28;20453;-64
2023/07/24 05:22:36;;;;;;;14.93;9.23;;;21.30;99.90;;;;;;5030146;28;20429;-63
2023/07/24 05:25:02;;;;;;;15.30;8.90;;;21.20;99.90;;;;;;5030513;28;20457;-63
2023/07/24 05:27:29;;;;;;;14.43;7.93;;;21.20;99.90;;;;;;5030276;28;20192;-63
2023/07/24 05:29:55;;;;;;;12.63;7.50;;;21.30;99.90;;;;;;5029706;28;20715;-63
2023/07/24 05:32:20;;;;;;;12.40;8.23;;;21.40;99.90;;;;;;5030092;28;20426;-64
2023/07/24 05:34:46;;;;;;;12.20;7.90;;;21.50;99.90;;;;;;5030010;28;20184;-63
2023/07/24 05:37:11;;;;;;;12.30;8.33;;;21.70;99.90;;;;;;5029998;28;20176;-64
2023/07/24 05:39:37;;;;;;;11.50;8.20;;;21.70;99.90;;;;;;5029729;28;20343;-63
2023/07/24 05:42:03;;;;;;;10.73;7.90;;;21.70;99.90;;;;;;5029898;28;20697;-63
2023/07/24 05:44:29;;;;;;;14.83;8.30;;;21.80;99.90;;;;;;5029679;28;20258;-63
2023/07/24 05:46:54;;;;;;;13.10;8.20;;;21.80;99.90;;;;;;5029463;28;20465;-63
2023/07/24 05:49:20;;;;;;;15.30;8.97;;;21.70;99.90;;;;;;5029310;28;20269;-63
2023/07/24 05:51:45;;;;;;;10.43;7.80;;;21.70;99.90;;;;;;5029709;28;20178;-63
2023/07/24 05:54:11;;;;;;;19.20;9.10;;;21.70;99.90;;;;;;5029475;28;20188;-64
2023/07/24 05:56:36;;;;;;;15.70;8.07;;;21.60;99.90;;;;;;5029541;28;20195;-63
2023/07/24 05:59:02;;;;;;;13.93;8.63;;;21.60;99.90;;;;;;5028090;28;20189;-64
2023/07/24 06:01:27;;;;;;;11.40;7.73;;;21.50;99.90;;;;;;5029705;28;20207;-63
2023/07/24 06:03:53;;;;;;;12.70;8.63;;;21.50;99.90;;;;;;5029892;28;20233;-63
2023/07/24 06:06:19;;;;;;;14.97;8.00;;;21.50;99.90;;;;;;5029816;28;20184;-63
2023/07/24 06:08:47;;;;;;;12.33;8.17;;;21.50;99.90;;;;;;5029385;28;20199;-63
2023/07/24 06:11:12;;;;;;;15.63;7.57;;;21.60;99.90;;;;;;5029664;28;20499;-63
2023/07/24 06:13:38;;;;;;;17.50;8.20;;;21.50;99.90;;;;;;5029969;28;20773;-63
2023/07/24 06:16:04;;;;;;;15.10;8.80;;;21.50;99.90;;;;;;5029302;28;20216;-63
2023/07/24 06:18:29;;;;;;;12.97;8.27;;;21.50;99.90;;;;;;5029462;28;20535;-62
2023/07/24 06:20:55;;;;;;;13.43;8.80;;;21.50;99.90;;;;;;5029471;28;20219;-62
2023/07/24 06:23:21;;;;;;;14.10;8.50;;;21.50;99.90;;;;;;5029180;28;20223;-62
2023/07/24 06:25:46;;;;;;;14.03;8.43;;;21.50;99.90;;;;;;5029286;28;20762;-62
2023/07/24 06:28:12;;;;;;;16.03;8.80;;;21.70;99.90;;;;;;5029382;28;20659;-63
2023/07/24 06:30:41;;;;;;;22.70;8.40;;;21.70;99.90;;;;;;5029475;28;20568;-63
2023/07/24 06:33:06;;;;;;;11.80;7.93;;;21.80;99.90;;;;;;5029258;28;20185;-64
2023/07/24 06:35:32;;;;;;;14.47;8.40;;;21.80;99.90;;;;;;5029434;28;20482;-63
2023/07/24 06:37:57;;;;;;;11.80;7.33;;;21.90;99.90;;;;;;5029426;28;20188;-62
2023/07/24 06:40:23;;;;;;;16.53;8.30;;;21.90;99.90;;;;;;5029374;28;20281;-62
2023/07/24 06:42:48;;;;;;;22.57;9.30;;;21.90;99.90;;;;;;5030309;28;20190;-64
2023/07/24 06:45:14;;;;;;;12.80;7.57;;;21.90;99.90;;;;;;5029184;28;20233;-64
2023/07/24 06:47:40;;;;;;;17.10;8.87;;;21.90;99.90;;;;;;5029254;28;20190;-62
2023/07/24 06:50:06;;;;;;;12.60;8.37;;;21.90;99.90;;;;;;5027507;28;20307;-62
2023/07/24 06:52:32;;;;;;;16.10;8.30;;;21.80;99.90;;;;;;5029123;28;20218;-63
2023/07/24 06:54:58;;;;;;;10.70;7.63;;;21.90;99.90;;;;;;5028972;28;20432;-62
2023/07/24 06:57:24;;;;;;;13.10;8.20;;;22.00;99.90;;;;;;5028944;28;20427;-63
2023/07/24 06:59:49;;;;;;;17.60;9.20;;;22.00;99.90;;;;;;5027503;28;20241;-62
2023/07/24 07:02:15;;;;;;;17.77;8.50;;;22.00;99.90;;;;;;5028908;28;20477;-63
2023/07/24 07:04:41;;;;;;;14.93;7.90;;;22.00;99.90;;;;;;5028727;28;20195;-63
2023/07/24 07:07:06;;;;;;;13.87;8.37;;;22.10;99.90;;;;;;5028924;28;20212;-62
2023/07/24 07:09:32;;;;;;;12.13;8.30;;;22.20;99.90;;;;;;5028309;28;20217;-63
2023/07/24 07:11:58;;;;;;;13.20;7.70;;;22.20;99.90;;;;;;5028040;28;20713;-63
2023/07/24 07:14:23;;;;;;;13.17;8.13;;;22.20;99.90;;;;;;5028321;28;20277;-63
2023/07/24 07:16:49;;;;;;;14.43;7.07;;;22.30;99.90;;;;;;5028352;28;20185;-63
2023/07/24 07:19:18;;;;;;;18.30;8.07;;;22.40;99.90;;;;;;5028362;28;20198;-63
2023/07/24 07:21:43;;;;;;;15.20;7.87;;;22.40;99.90;;;;;;5028300;28;20189;-63
2023/07/24 07:24:09;;;;;;;17.73;7.70;;;22.20;99.90;;;;;;5028302;28;20502;-64
2023/07/24 07:26:34;;;;;;;13.27;7.90;;;22.20;99.90;;;;;;5028305;28;20216;-62
2023/07/24 07:29:00;;;;;;;14.60;7.40;;;22.10;99.90;;;;;;5028316;28;20190;-63
2023/07/24 07:31:26;;;;;;;9.77;7.43;;;22.20;99.90;;;;;;5028341;28;20239;-62
2023/07/24 07:33:51;;;;;;;16.33;7.37;;;22.30;99.90;;;;;;5028456;28;20238;-63
2023/07/24 07:36:17;;;;;;;14.40;9.03;;;22.40;99.90;;;;;;5028334;28;20738;-62
2023/07/24 07:38:43;;;;;;;15.47;7.70;;;22.60;99.90;;;;;;5028370;28;20201;-62
2023/07/24 07:41:09;;;;;;;11.93;7.00;;;22.70;99.90;;;;;;5028032;28;20618;-63
2023/07/24 07:43:36;;;;;;;14.00;7.70;;;22.80;99.90;;;;;;5028178;28;20792;-63
2023/07/24 07:46:02;;;;;;;14.80;8.10;;;23.10;99.90;;;;;;5028205;28;20185;-63
2023/07/24 07:48:27;;;;;;;15.10;7.60;;;23.40;99.90;;;;;;5028068;28;20513;-63
2023/07/24 07:50:53;;;;;;;11.60;7.07;;;23.60;99.90;;;;;;5027413;28;20566;-63
2023/07/24 07:53:19;;;;;;;9.03;6.70;;;23.70;99.90;;;;;;5027761;28;20178;-63
2023/07/24 07:55:44;;;;;;;9.70;7.30;;;23.80;99.90;;;;;;5027620;28;20735;-64
2023/07/24 07:58:10;;;;;;;10.53;6.80;;;23.80;99.90;;;;;;5027428;28;20184;-63
2023/07/24 08:00:35;;;;;;;14.27;8.50;;;23.80;99.90;;;;;;5027350;28;20719;-63
2023/07/24 08:03:01;;;;;;;11.43;7.83;;;23.80;99.90;;;;;;5027533;28;20699;-63
2023/07/24 08:05:27;;;;;;;15.10;7.17;;;23.60;99.90;;;;;;5027949;28;20297;-63
2023/07/24 08:07:53;;;;;;;11.83;7.13;;;23.60;99.90;;;;;;5027832;28;20183;-63
2023/07/24 08:10:18;;;;;;;10.87;7.77;;;23.50;99.90;;;;;;5027628;28;20506;-63
2023/07/24 08:12:44;;;;;;;11.30;6.70;;;23.40;99.90;;;;;;5027884;28;20177;-64
2023/07/24 08:15:10;;;;;;;11.57;7.13;;;23.40;99.90;;;;;;5027819;28;20626;-73
2023/07/24 08:17:36;;;;;;;10.07;7.60;;;23.40;99.90;;;;;;5026376;28;20253;-72
2023/07/24 08:20:02;;;;;;;14.13;6.30;;;23.50;99.90;;;;;;5027967;28;20956;-73
2023/07/24 08:22:28;;;;;;;8.27;6.10;;;23.60;99.90;;;;;;5028374;28;20182;-73
2023/07/24 08:24:54;;;;;;;10.97;6.60;;;23.70;99.00;;;;;;5030582;28;20522;-73
2023/07/24 08:27:19;;;;;;;8.40;5.90;;;23.80;98.80;;;;;;5031832;28;20195;-73
2023/07/24 08:29:45;;;;;;;12.03;7.47;;;24.00;98.30;;;;;;5030315;28;20477;-73
2023/07/24 08:32:10;;;;;;;7.77;5.67;;;24.10;98.80;;;;;;5031761;28;20181;-73
2023/07/24 08:34:36;;;;;;;15.23;6.73;;;24.20;99.10;;;;;;5031299;28;20189;-73
2023/07/24 08:37:01;;;;;;;9.63;6.33;;;24.10;97.90;;;;;;5031808;28;20258;-73
2023/07/24 08:39:27;;;;;;;9.83;5.83;;;24.00;98.20;;;;;;5031662;28;20641;-72
2023/07/24 08:41:53;;;;;;;10.70;6.60;;;24.00;98.40;;;;;;5031669;28;20192;-73
2023/07/24 08:44:19;;;;;;;7.70;5.90;;;23.90;97.90;;;;;;5030400;28;20189;-73
2023/07/24 08:46:47;;;;;;;11.30;6.30;;;24.00;98.50;;;;;;5031684;28;20183;-74
2023/07/24 08:49:13;;;;;;;10.53;6.30;;;24.10;98.40;;;;;;5031343;28;20575;-73
2023/07/24 08:51:41;;;;;;;8.13;5.77;;;24.10;98.10;;;;;;5031705;28;20857;-73
2023/07/24 08:54:07;;;;;;;7.90;6.00;;;24.10;98.60;;;;;;5031551;28;20439;-73
2023/07/24 08:56:33;;;;;;;11.13;5.57;;;24.00;98.40;;;;;;5030189;28;20426;-74
2023/07/24 08:58:59;;;;;;;8.83;7.17;;;24.00;98.90;;;;;;5031406;28;20425;-73
2023/07/24 09:01:25;;;;;;;18.50;6.50;;;23.90;99.90;;;;;;5013174;28;20486;-73
2023/07/24 09:03:51;;;;;;;14.20;7.53;;;23.80;99.90;;;;;;5029351;28;20283;-73
2023/07/24 09:06:16;;;;;;;8.87;7.20;;;23.70;99.90;;;;;;5031065;28;20828;-73
2023/07/24 09:08:43;;;;;;;8.80;6.30;;;23.60;99.90;;;;;;5029543;28;20190;-72
2023/07/24 09:11:10;;;;;;;8.70;6.13;;;23.50;99.90;;;;;;5030862;28;20219;-73
2023/07/24 09:13:37;;;;;;;9.17;6.93;;;23.20;99.90;;;;;;5030581;28;20527;-72
2023/07/24 09:16:03;;;;;;;9.03;5.90;;;23.20;99.90;;;;;;5028788;28;20925;-72
2023/07/24 09:18:43;;;;;;;9.97;6.87;;;23.10;99.90;;;;;;5030138;28;20492;-72
2023/07/24 09:21:11;;;;;;;10.23;6.60;;;23.20;99.90;;;;;;5029902;28;20445;-73
2023/07/24 09:23:40;;;;;;;9.37;6.80;;;23.10;99.90;;;;;;5030466;28;20435;-73
2023/07/24 09:26:07;;;;;;;9.90;5.97;;;23.10;99.90;;;;;;5030214;28;20509;-72
2023/07/24 09:28:34;;;;;;;10.10;6.30;;;23.10;99.90;;;;;;5030384;28;20911;-73
2023/07/24 09:31:04;;;;;;;7.83;6.40;;;23.00;99.90;;;;;;5029933;28;21038;-72
2023/07/24 09:33:38;;;;;;;7.30;6.17;;;23.00;99.90;;;;;;5029646;28;20418;-72
2023/07/24 09:36:07;;;;;;;12.47;5.87;;;22.90;99.90;;;;;;5029879;28;20445;-72
2023/07/24 09:38:32;;;;;;;10.23;6.90;;;22.90;99.90;;;;;;5030079;28;20479;-72
2023/07/24 09:41:00;;;;;;;11.03;6.23;;;22.90;99.90;;;;;;5029947;28;20897;-72
2023/07/24 09:43:27;;;;;;;8.77;6.30;;;22.80;99.90;;;;;;5029853;28;20712;-72
2023/07/24 09:45:54;;;;;;;10.10;6.20;;;22.80;99.90;;;;;;5030102;28;20430;-72
2023/07/24 09:48:22;;;;;;;11.87;7.07;;;22.80;99.90;;;;;;5029434;28;20426;-72
2023/07/24 09:50:49;;;;;;;9.93;6.60;;;22.80;99.90;;;;;;5029255;28;20506;-72
2023/07/24 09:53:38;;;;;;;12.20;6.97;;;22.80;99.90;;;;;;5029355;28;20471;-72
2023/07/24 09:56:08;;;;;;;11.80;6.03;;;22.70;99.90;;;;;;5029281;28;20467;-72
2023/07/24 09:58:36;;;;;;;13.20;6.57;;;22.60;99.90;;;;;;5029274;28;20425;-72
2023/07/24 10:01:03;;;;;;;8.90;6.73;;;22.50;99.90;;;;;;5029204;28;20442;-72
2023/07/24 10:03:30;;;;;;;11.00;6.77;;;22.50;99.90;;;;;;5029158;28;20462;-72
2023/07/24 10:05:56;;;;;;;11.93;6.37;;;22.40;99.90;;;;;;5029147;28;20435;-72
2023/07/24 10:08:23;;;;;;;10.47;7.37;;;22.30;99.90;;;;;;5029214;28;20423;-72
2023/07/24 10:10:52;;;;;;;8.77;6.20;;;22.30;99.90;;;;;;5028959;28;20219;-72
2023/07/24 10:13:18;;;;;;;9.50;6.10;;;22.40;99.90;;;;;;5028951;28;20479;-73
2023/07/24 10:15:46;;;;;;;9.87;6.90;;;22.40;99.90;;;;;;5028868;28;20872;-73
2023/07/24 10:18:12;;;;;;;13.07;7.57;;;22.40;99.90;;;;;;5029047;28;20778;-73
2023/07/24 10:20:41;;;;;;;10.10;6.67;;;22.30;99.90;;;;;;5028923;28;20455;-73
2023/07/24 10:23:09;;;;;;;9.90;6.83;;;22.30;99.90;;;;;;5029632;28;20681;-73
2023/07/24 10:25:37;;;;;;;11.07;6.57;;;22.30;99.90;;;;;;5029749;28;20455;-73
2023/07/24 10:28:10;;;;;;;11.70;7.47;;;22.10;99.90;;;;;;5029265;28;20918;-72
2023/07/24 10:30:41;;;;;;;18.60;8.90;;;21.90;99.90;;;;;;5029257;28;20885;-73
2023/07/24 10:33:11;;;;;;;10.00;6.43;;;21.60;99.90;;;;;;5029343;28;20415;-73
2023/07/24 10:35:38;;;;;;;8.83;7.30;;;21.30;99.90;;;;;;5029593;28;20419;-72
2023/07/24 10:38:03;;;;;;;10.70;6.60;;;21.10;99.90;;;;;;5029196;28;20467;-72
2023/07/24 10:40:30;;;;;;;13.00;7.27;;;20.90;99.90;;;;;;5028891;28;20445;-72
2023/07/24 10:43:13;;;;;;;9.63;6.30;;;20.60;99.90;;;;;;5027881;28;20437;-71
2023/07/24 10:45:46;;;;;;;10.50;6.80;;;20.60;99.90;;;;;;5028117;28;20435;-72
2023/07/24 10:48:12;;;;;;;10.40;6.03;;;20.50;99.90;;;;;;5030576;28;20430;-73
2023/07/24 10:50:39;;;;;;;10.03;6.67;;;20.50;99.90;;;;;;5032065;28;20478;-72
2023/07/24 10:53:05;;;;;;;9.03;6.70;;;20.40;99.90;;;;;;5029673;28;20804;-72
2023/07/24 10:55:30;;;;;;;14.23;7.23;;;20.30;99.90;;;;;;5028971;28;20441;-71
2023/07/24 10:57:56;;;;;;;10.43;6.90;;;20.20;99.90;;;;;;5028604;28;20188;-72
2023/07/24 11:00:22;;;;;;;9.83;6.10;;;20.10;99.90;;;;;;5027692;28;20209;-72
2023/07/24 11:02:47;;;;;;;9.60;6.50;;;20.00;99.90;;;;;;5029002;28;20185;-73
2023/07/24 11:05:14;;;;;;;10.23;7.30;;;19.80;99.90;;;;;;5028990;28;20241;-73
2023/07/24 11:07:39;;;;;;;8.47;6.10;;;20.00;99.90;;;;;;5028818;28;20192;-72
2023/07/24 11:10:18;;;;;;;9.37;6.10;;;20.00;99.90;;;;;;5028853;28;20471;-72
2023/07/24 11:12:44;;;;;;;8.53;6.00;;;20.00;99.90;;;;;;5029225;28;20189;-72
2023/07/24 11:15:11;;;;;;;17.90;6.87;;;20.00;99.90;;;;;;5028456;28;21059;-73
2023/07/24 11:17:40;;;;;;;9.27;6.10;;;19.70;99.90;;;;;;5028699;28;20442;-72
2023/07/24 11:20:16;;;;;;;9.53;6.27;;;19.70;99.90;;;;;;5028749;28;20447;-73
2023/07/24 11:22:43;;;;;;;8.10;6.23;;;19.60;99.90;;;;;;5030074;28;20415;-74
2023/07/24 11:25:11;;;;;;;8.87;6.80;;;19.70;99.90;;;;;;5029543;28;20422;-73
2023/07/24 11:27:42;;;;;;;11.13;7.10;;;19.70;99.90;;;;;;5027397;28;20446;-73
2023/07/24 11:30:09;;;;;;;8.50;6.57;;;19.70;99.90;;;;;;5028832;28;20467;-72
2023/07/24 11:32:34;;;;;;;8.10;6.20;;;19.70;99.90;;;;;;5028829;28;20836;-72
2023/07/24 11:35:00;;;;;;;8.77;6.73;;;19.70;99.90;;;;;;5028867;28;20415;-74
2023/07/24 11:37:26;;;;;;;7.97;5.90;;;19.90;99.90;;;;;;5029501;28;20173;-74
2023/07/24 11:40:04;;;;;;;9.07;6.20;;;20.00;99.90;;;;;;5029028;28;20569;-73
2023/07/24 11:42:30;;;;;;;8.50;5.93;;;20.20;99.90;;;;;;5029121;28;20181;-73
2023/07/24 11:44:55;;;;;;;7.97;6.33;;;20.30;99.90;;;;;;5028976;28;20774;-73
2023/07/24 11:47:21;;;;;;;9.57;5.60;;;20.50;99.90;;;;;;5029175;28;20184;-73
2023/07/24 11:50:01;;;;;;;9.13;6.70;;;20.80;99.90;;;;;;5028717;28;20219;-73
2023/07/24 11:52:42;;;;;;;9.60;6.20;;;21.20;99.90;;;;;;5029115;28;20180;-73
2023/07/24 11:55:08;;;;;;;9.67;6.33;;;21.80;99.90;;;;;;5029869;28;20469;-73
2023/07/24 11:57:34;;;;;;;9.07;6.20;;;22.00;99.90;;;;;;5029443;28;20411;-75
2023/07/24 11:59:59;;;;;;;10.70;6.30;;;21.80;99.90;;;;;;5028984;28;20201;-74
2023/07/24 12:02:28;;;;;;;6.60;5.43;;;21.70;99.90;;;;;;5027090;28;20224;-73
2023/07/24 12:04:56;;;;;;;7.20;5.20;;;21.80;99.90;;;;;;5028637;28;20183;-73
2023/07/24 12:07:28;;;;;;;9.20;6.57;;;21.80;99.90;;;;;;5027308;28;20416;-73
2023/07/24 12:09:54;;;;;;;7.60;5.47;;;21.80;99.90;;;;;;5028380;28;20462;-73
2023/07/24 12:12:20;;;;;;;10.13;6.60;;;21.90;99.90;;;;;;5028798;28;20416;-72
2023/07/24 12:14:45;;;;;;;10.17;5.83;;;22.20;99.90;;;;;;5028807;28;20424;-73
2023/07/24 12:17:14;;;;;;;8.73;5.67;;;22.30;99.90;;;;;;5028869;28;20190;-74
2023/07/24 12:19:39;;;;;;;6.27;5.30;;;22.40;99.90;;;;;;5028696;28;20247;-73
2023/07/24 12:22:05;;;;;;;8.60;5.60;;;22.20;99.90;;;;;;5028796;28;20424;-72
2023/07/24 12:24:31;;;;;;;8.57;5.20;;;22.10;99.90;;;;;;5028942;28;20198;-75
2023/07/24 12:26:56;;;;;;;7.30;5.27;;;22.00;99.90;;;;;;5028662;28;20200;-74
2023/07/24 12:29:22;;;;;;;5.60;4.43;;;22.10;99.90;;;;;;5028438;28;20208;-74
2023/07/24 12:31:47;;;;;;;8.23;6.27;;;21.80;99.90;;;;;;5028433;28;20230;-75
2023/07/24 12:34:13;;;;;;;6.77;5.10;;;22.00;99.90;;;;;;5027113;28;20185;-75